sensor_id;sensor_type;location;lat;lon;timestamp;P1;durP1;ratioP1;P2;durP2;ratioP2
2646;SDS011;1333;50.958;6.770;2022-07-18T00:00:03;1.77;;;1.23;;
2646;SDS011;1333;50.958;6.770;2022-07-18T00:02:30;2.60;;;1.20;;
2646;SDS011;1333;50.958;6.770;2022-07-18T00:04:56;3.00;;;1.07;;
2646;SDS011;1333;50.958;6.770;2022-07-18T00:07:21;1.60;;;1.33;;
2646;SDS011;1333;50.958;6.770;2022-07-18T00:09:47;2.80;;;2.23;;
2646;SDS011;1333;50.958;6.770;2022-07-18T00:12:13;1.73;;;1.53;;
2646;SDS011;1333;50.958;6.770;2022-07-18T00:14:39;2.70;;;1.40;;
2646;SDS011;1333;50.958;6.770;2022-07-18T00:17:05;4.03;;;1.50;;
2646;SDS011;1333;50.958;6.770;2022-07-18T00:19:31;2.30;;;1.23;;
2646;SDS011;1333;50.958;6.770;2022-07-18T00:21:57;1.30;;;1.00;;
2646;SDS011;1333;50.958;6.770;2022-07-18T00:24:23;1.50;;;1.07;;
2646;SDS011;1333;50.958;6.770;2022-07-18T00:26:48;1.50;;;1.13;;
2646;SDS011;1333;50.958;6.770;2022-07-18T00:29:14;1.50;;;1.03;;
2646;SDS011;1333;50.958;6.770;2022-07-18T00:31:40;1.20;;;1.00;;
2646;SDS011;1333;50.958;6.770;2022-07-18T00:34:05;1.43;;;1.10;;
2646;SDS011;1333;50.958;6.770;2022-07-18T00:36:31;3.20;;;1.40;;
2646;SDS011;1333;50.958;6.770;2022-07-18T00:38:57;2.57;;;1.33;;
2646;SDS011;1333;50.958;6.770;2022-07-18T00:41:24;8.60;;;1.40;;
2646;SDS011;1333;50.958;6.770;2022-07-18T00:43:50;4.53;;;1.47;;
2646;SDS011;1333;50.958;6.770;2022-07-18T00:46:18;1.70;;;1.60;;
2646;SDS011;1333;50.958;6.770;2022-07-18T00:48:46;2.37;;;1.23;;
2646;SDS011;1333;50.958;6.770;2022-07-18T00:51:11;1.37;;;1.10;;
2646;SDS011;1333;50.958;6.770;2022-07-18T00:53:37;2.37;;;1.57;;
2646;SDS011;1333;50.958;6.770;2022-07-18T00:56:03;2.80;;;1.83;;
2646;SDS011;1333;50.958;6.770;2022-07-18T00:58:29;1.73;;;1.47;;
2646;SDS011;1333;50.958;6.770;2022-07-18T01:00:56;1.30;;;1.20;;
2646;SDS011;1333;50.958;6.770;2022-07-18T01:03:40;2.47;;;1.30;;
2646;SDS011;1333;50.958;6.770;2022-07-18T01:06:06;1.50;;;1.10;;
2646;SDS011;1333;50.958;6.770;2022-07-18T01:08:31;1.47;;;1.37;;
2646;SDS011;1333;50.958;6.770;2022-07-18T01:10:57;1.97;;;1.20;;
2646;SDS011;1333;50.958;6.770;2022-07-18T01:13:23;3.63;;;1.73;;
2646;SDS011;1333;50.958;6.770;2022-07-18T01:15:49;1.70;;;1.20;;
2646;SDS011;1333;50.958;6.770;2022-07-18T01:18:14;2.00;;;1.53;;
2646;SDS011;1333;50.958;6.770;2022-07-18T01:20:40;2.10;;;1.37;;
2646;SDS011;1333;50.958;6.770;2022-07-18T01:23:06;1.63;;;1.40;;
2646;SDS011;1333;50.958;6.770;2022-07-18T01:25:31;1.70;;;1.30;;
2646;SDS011;1333;50.958;6.770;2022-07-18T01:27:57;1.30;;;0.90;;
2646;SDS011;1333;50.958;6.770;2022-07-18T01:30:23;2.03;;;1.40;;
2646;SDS011;1333;50.958;6.770;2022-07-18T01:32:56;3.30;;;1.10;;
2646;SDS011;1333;50.958;6.770;2022-07-18T01:35:23;2.07;;;1.33;;
2646;SDS011;1333;50.958;6.770;2022-07-18T01:37:50;2.80;;;1.20;;
2646;SDS011;1333;50.958;6.770;2022-07-18T01:40:16;1.60;;;1.20;;
2646;SDS011;1333;50.958;6.770;2022-07-18T01:42:42;1.10;;;0.93;;
2646;SDS011;1333;50.958;6.770;2022-07-18T01:45:08;1.43;;;1.07;;
2646;SDS011;1333;50.958;6.770;2022-07-18T01:47:33;2.63;;;1.37;;
2646;SDS011;1333;50.958;6.770;2022-07-18T01:49:59;6.27;;;1.70;;
2646;SDS011;1333;50.958;6.770;2022-07-18T01:52:24;5.67;;;3.70;;
2646;SDS011;1333;50.958;6.770;2022-07-18T01:54:50;1.90;;;1.47;;
2646;SDS011;1333;50.958;6.770;2022-07-18T01:57:16;3.23;;;1.50;;
2646;SDS011;1333;50.958;6.770;2022-07-18T01:59:41;3.93;;;1.43;;
2646;SDS011;1333;50.958;6.770;2022-07-18T02:02:07;2.43;;;1.33;;
2646;SDS011;1333;50.958;6.770;2022-07-18T02:04:32;4.63;;;2.10;;
2646;SDS011;1333;50.958;6.770;2022-07-18T02:07:16;1.70;;;1.20;;
2646;SDS011;1333;50.958;6.770;2022-07-18T02:09:42;2.90;;;1.40;;
2646;SDS011;1333;50.958;6.770;2022-07-18T02:12:07;1.47;;;1.00;;
2646;SDS011;1333;50.958;6.770;2022-07-18T02:14:33;1.73;;;1.53;;
2646;SDS011;1333;50.958;6.770;2022-07-18T02:16:58;5.57;;;1.70;;
2646;SDS011;1333;50.958;6.770;2022-07-18T02:19:24;1.50;;;1.37;;
2646;SDS011;1333;50.958;6.770;2022-07-18T02:21:49;1.30;;;1.10;;
2646;SDS011;1333;50.958;6.770;2022-07-18T02:24:15;1.40;;;1.10;;
2646;SDS011;1333;50.958;6.770;2022-07-18T02:26:41;1.23;;;1.00;;
2646;SDS011;1333;50.958;6.770;2022-07-18T02:29:06;1.30;;;1.13;;
2646;SDS011;1333;50.958;6.770;2022-07-18T02:31:32;2.53;;;1.40;;
2646;SDS011;1333;50.958;6.770;2022-07-18T02:33:57;1.30;;;0.90;;
2646;SDS011;1333;50.958;6.770;2022-07-18T02:36:23;1.40;;;1.13;;
2646;SDS011;1333;50.958;6.770;2022-07-18T02:38:48;1.20;;;1.10;;
2646;SDS011;1333;50.958;6.770;2022-07-18T02:41:14;2.20;;;2.00;;
2646;SDS011;1333;50.958;6.770;2022-07-18T02:43:39;1.47;;;1.13;;
2646;SDS011;1333;50.958;6.770;2022-07-18T02:46:05;3.93;;;1.50;;
2646;SDS011;1333;50.958;6.770;2022-07-18T02:48:31;2.07;;;1.20;;
2646;SDS011;1333;50.958;6.770;2022-07-18T02:50:56;2.60;;;1.30;;
2646;SDS011;1333;50.958;6.770;2022-07-18T02:53:22;1.50;;;1.40;;
2646;SDS011;1333;50.958;6.770;2022-07-18T02:55:48;1.40;;;1.10;;
2646;SDS011;1333;50.958;6.770;2022-07-18T02:58:16;1.63;;;1.10;;
2646;SDS011;1333;50.958;6.770;2022-07-18T03:00:42;5.30;;;1.90;;
2646;SDS011;1333;50.958;6.770;2022-07-18T03:03:08;1.83;;;1.17;;
2646;SDS011;1333;50.958;6.770;2022-07-18T03:05:33;2.27;;;1.57;;
2646;SDS011;1333;50.958;6.770;2022-07-18T03:07:59;3.50;;;1.50;;
2646;SDS011;1333;50.958;6.770;2022-07-18T03:10:25;3.13;;;1.60;;
2646;SDS011;1333;50.958;6.770;2022-07-18T03:12:50;1.53;;;1.40;;
2646;SDS011;1333;50.958;6.770;2022-07-18T03:15:16;5.10;;;1.77;;
2646;SDS011;1333;50.958;6.770;2022-07-18T03:17:41;2.00;;;1.47;;
2646;SDS011;1333;50.958;6.770;2022-07-18T03:20:07;2.40;;;1.80;;
2646;SDS011;1333;50.958;6.770;2022-07-18T03:22:34;10.13;;;1.87;;
2646;SDS011;1333;50.958;6.770;2022-07-18T03:24:59;1.90;;;1.70;;
2646;SDS011;1333;50.958;6.770;2022-07-18T03:27:25;1.67;;;1.57;;
2646;SDS011;1333;50.958;6.770;2022-07-18T03:29:50;1.67;;;1.37;;
2646;SDS011;1333;50.958;6.770;2022-07-18T03:32:16;1.83;;;1.40;;
2646;SDS011;1333;50.958;6.770;2022-07-18T03:34:42;2.17;;;1.90;;
2646;SDS011;1333;50.958;6.770;2022-07-18T03:37:07;3.00;;;1.47;;
2646;SDS011;1333;50.958;6.770;2022-07-18T03:39:33;3.20;;;1.70;;
2646;SDS011;1333;50.958;6.770;2022-07-18T03:41:58;3.17;;;2.40;;
2646;SDS011;1333;50.958;6.770;2022-07-18T03:44:24;3.10;;;1.40;;
2646;SDS011;1333;50.958;6.770;2022-07-18T03:46:49;2.07;;;1.40;;
2646;SDS011;1333;50.958;6.770;2022-07-18T03:49:16;4.40;;;1.50;;
2646;SDS011;1333;50.958;6.770;2022-07-18T03:51:42;1.97;;;1.50;;
2646;SDS011;1333;50.958;6.770;2022-07-18T03:54:08;2.03;;;1.57;;
2646;SDS011;1333;50.958;6.770;2022-07-18T03:56:34;3.03;;;1.90;;
2646;SDS011;1333;50.958;6.770;2022-07-18T03:59:00;1.33;;;1.23;;
2646;SDS011;1333;50.958;6.770;2022-07-18T04:01:26;1.63;;;1.20;;
2646;SDS011;1333;50.958;6.770;2022-07-18T04:03:52;1.60;;;1.40;;
2646;SDS011;1333;50.958;6.770;2022-07-18T04:06:17;2.80;;;2.07;;
2646;SDS011;1333;50.958;6.770;2022-07-18T04:08:43;3.80;;;1.67;;
2646;SDS011;1333;50.958;6.770;2022-07-18T04:11:08;1.30;;;1.20;;
2646;SDS011;1333;50.958;6.770;2022-07-18T04:13:34;1.77;;;1.63;;
2646;SDS011;1333;50.958;6.770;2022-07-18T04:15:59;2.43;;;1.23;;
2646;SDS011;1333;50.958;6.770;2022-07-18T04:18:25;2.97;;;1.70;;
2646;SDS011;1333;50.958;6.770;2022-07-18T04:20:50;2.33;;;2.13;;
2646;SDS011;1333;50.958;6.770;2022-07-18T04:23:16;1.90;;;1.50;;
2646;SDS011;1333;50.958;6.770;2022-07-18T04:25:43;1.87;;;1.60;;
2646;SDS011;1333;50.958;6.770;2022-07-18T04:28:09;1.50;;;1.30;;
2646;SDS011;1333;50.958;6.770;2022-07-18T04:30:36;2.03;;;1.73;;
2646;SDS011;1333;50.958;6.770;2022-07-18T04:33:03;3.10;;;2.10;;
2646;SDS011;1333;50.958;6.770;2022-07-18T04:35:30;3.20;;;1.57;;
2646;SDS011;1333;50.958;6.770;2022-07-18T04:37:56;4.83;;;2.50;;
2646;SDS011;1333;50.958;6.770;2022-07-18T04:40:22;2.57;;;2.10;;
2646;SDS011;1333;50.958;6.770;2022-07-18T04:42:48;2.70;;;1.73;;
2646;SDS011;1333;50.958;6.770;2022-07-18T04:45:14;4.10;;;1.80;;
2646;SDS011;1333;50.958;6.770;2022-07-18T04:47:41;2.57;;;2.03;;
2646;SDS011;1333;50.958;6.770;2022-07-18T04:50:06;5.73;;;2.33;;
2646;SDS011;1333;50.958;6.770;2022-07-18T04:52:36;3.50;;;2.20;;
2646;SDS011;1333;50.958;6.770;2022-07-18T04:55:06;2.20;;;2.00;;
2646;SDS011;1333;50.958;6.770;2022-07-18T04:57:34;2.83;;;1.67;;
2646;SDS011;1333;50.958;6.770;2022-07-18T05:00:00;3.47;;;2.10;;
2646;SDS011;1333;50.958;6.770;2022-07-18T05:02:29;4.10;;;2.23;;
2646;SDS011;1333;50.958;6.770;2022-07-18T05:04:55;2.23;;;2.00;;
2646;SDS011;1333;50.958;6.770;2022-07-18T05:07:20;3.63;;;2.07;;
2646;SDS011;1333;50.958;6.770;2022-07-18T05:09:46;2.23;;;1.80;;
2646;SDS011;1333;50.958;6.770;2022-07-18T05:12:11;6.07;;;1.83;;
2646;SDS011;1333;50.958;6.770;2022-07-18T05:14:37;3.43;;;2.03;;
2646;SDS011;1333;50.958;6.770;2022-07-18T05:17:03;3.30;;;1.97;;
2646;SDS011;1333;50.958;6.770;2022-07-18T05:19:28;1.80;;;1.53;;
2646;SDS011;1333;50.958;6.770;2022-07-18T05:21:54;3.47;;;1.97;;
2646;SDS011;1333;50.958;6.770;2022-07-18T05:24:19;3.93;;;1.90;;
2646;SDS011;1333;50.958;6.770;2022-07-18T05:26:45;3.20;;;2.10;;
2646;SDS011;1333;50.958;6.770;2022-07-18T05:29:11;2.40;;;1.77;;
2646;SDS011;1333;50.958;6.770;2022-07-18T05:31:38;3.10;;;2.20;;
2646;SDS011;1333;50.958;6.770;2022-07-18T05:34:06;1.83;;;1.63;;
2646;SDS011;1333;50.958;6.770;2022-07-18T05:36:33;3.47;;;2.03;;
2646;SDS011;1333;50.958;6.770;2022-07-18T05:38:58;3.00;;;1.63;;
2646;SDS011;1333;50.958;6.770;2022-07-18T05:41:24;2.70;;;1.83;;
2646;SDS011;1333;50.958;6.770;2022-07-18T05:43:49;7.93;;;1.80;;
2646;SDS011;1333;50.958;6.770;2022-07-18T05:46:15;3.67;;;1.53;;
2646;SDS011;1333;50.958;6.770;2022-07-18T05:48:40;2.33;;;2.10;;
2646;SDS011;1333;50.958;6.770;2022-07-18T05:51:06;2.77;;;1.70;;
2646;SDS011;1333;50.958;6.770;2022-07-18T05:53:32;3.60;;;1.73;;
2646;SDS011;1333;50.958;6.770;2022-07-18T05:55:58;2.10;;;1.53;;
2646;SDS011;1333;50.958;6.770;2022-07-18T05:58:23;2.87;;;2.10;;
2646;SDS011;1333;50.958;6.770;2022-07-18T06:00:49;2.20;;;1.10;;
2646;SDS011;1333;50.958;6.770;2022-07-18T06:03:14;3.20;;;2.00;;
2646;SDS011;1333;50.958;6.770;2022-07-18T06:05:40;1.90;;;1.60;;
2646;SDS011;1333;50.958;6.770;2022-07-18T06:08:06;2.27;;;1.17;;
2646;SDS011;1333;50.958;6.770;2022-07-18T06:10:32;2.93;;;1.63;;
2646;SDS011;1333;50.958;6.770;2022-07-18T06:12:58;2.20;;;1.40;;
2646;SDS011;1333;50.958;6.770;2022-07-18T06:15:24;1.87;;;1.77;;
2646;SDS011;1333;50.958;6.770;2022-07-18T06:17:49;2.63;;;1.70;;
2646;SDS011;1333;50.958;6.770;2022-07-18T06:20:16;2.50;;;2.07;;
2646;SDS011;1333;50.958;6.770;2022-07-18T06:22:41;1.63;;;1.30;;
2646;SDS011;1333;50.958;6.770;2022-07-18T06:25:07;2.27;;;1.30;;
2646;SDS011;1333;50.958;6.770;2022-07-18T06:27:33;2.87;;;1.83;;
2646;SDS011;1333;50.958;6.770;2022-07-18T06:30:00;3.30;;;1.60;;
2646;SDS011;1333;50.958;6.770;2022-07-18T06:32:29;2.03;;;1.60;;
2646;SDS011;1333;50.958;6.770;2022-07-18T06:34:55;2.77;;;2.10;;
2646;SDS011;1333;50.958;6.770;2022-07-18T06:37:20;2.50;;;1.53;;
2646;SDS011;1333;50.958;6.770;2022-07-18T06:39:46;2.00;;;1.47;;
2646;SDS011;1333;50.958;6.770;2022-07-18T06:42:11;2.03;;;1.67;;
2646;SDS011;1333;50.958;6.770;2022-07-18T06:44:37;2.60;;;1.80;;
2646;SDS011;1333;50.958;6.770;2022-07-18T06:47:02;3.00;;;1.60;;
2646;SDS011;1333;50.958;6.770;2022-07-18T06:49:28;2.90;;;1.60;;
2646;SDS011;1333;50.958;6.770;2022-07-18T06:51:54;2.03;;;1.20;;
2646;SDS011;1333;50.958;6.770;2022-07-18T06:54:19;3.43;;;2.10;;
2646;SDS011;1333;50.958;6.770;2022-07-18T06:56:45;2.33;;;1.97;;
2646;SDS011;1333;50.958;6.770;2022-07-18T06:59:11;2.10;;;1.90;;
2646;SDS011;1333;50.958;6.770;2022-07-18T07:01:37;2.03;;;1.40;;
2646;SDS011;1333;50.958;6.770;2022-07-18T07:04:02;2.17;;;1.67;;
2646;SDS011;1333;50.958;6.770;2022-07-18T07:06:28;1.73;;;1.20;;
2646;SDS011;1333;50.958;6.770;2022-07-18T07:08:54;2.30;;;1.47;;
2646;SDS011;1333;50.958;6.770;2022-07-18T07:11:20;4.13;;;2.07;;
2646;SDS011;1333;50.958;6.770;2022-07-18T07:13:47;3.50;;;1.77;;
2646;SDS011;1333;50.958;6.770;2022-07-18T07:16:12;6.10;;;1.67;;
2646;SDS011;1333;50.958;6.770;2022-07-18T07:18:38;3.97;;;2.20;;
2646;SDS011;1333;50.958;6.770;2022-07-18T07:21:05;2.87;;;1.80;;
2646;SDS011;1333;50.958;6.770;2022-07-18T07:23:31;1.33;;;1.10;;
2646;SDS011;1333;50.958;6.770;2022-07-18T07:25:56;1.77;;;1.67;;
2646;SDS011;1333;50.958;6.770;2022-07-18T07:28:22;2.50;;;2.30;;
2646;SDS011;1333;50.958;6.770;2022-07-18T07:30:48;1.60;;;1.40;;
2646;SDS011;1333;50.958;6.770;2022-07-18T07:33:13;3.10;;;1.43;;
2646;SDS011;1333;50.958;6.770;2022-07-18T07:35:39;2.60;;;1.70;;
2646;SDS011;1333;50.958;6.770;2022-07-18T07:38:04;3.17;;;1.47;;
2646;SDS011;1333;50.958;6.770;2022-07-18T07:40:30;4.30;;;1.90;;
2646;SDS011;1333;50.958;6.770;2022-07-18T07:43:05;2.73;;;1.53;;
2646;SDS011;1333;50.958;6.770;2022-07-18T07:45:32;1.60;;;1.50;;
2646;SDS011;1333;50.958;6.770;2022-07-18T07:47:59;3.30;;;1.87;;
2646;SDS011;1333;50.958;6.770;2022-07-18T07:50:24;3.17;;;1.43;;
2646;SDS011;1333;50.958;6.770;2022-07-18T07:52:50;1.70;;;1.50;;
2646;SDS011;1333;50.958;6.770;2022-07-18T07:55:15;1.90;;;1.50;;
2646;SDS011;1333;50.958;6.770;2022-07-18T07:57:41;2.80;;;1.50;;
2646;SDS011;1333;50.958;6.770;2022-07-18T08:00:07;2.60;;;2.10;;
2646;SDS011;1333;50.958;6.770;2022-07-18T08:02:34;5.03;;;2.17;;
2646;SDS011;1333;50.958;6.770;2022-07-18T08:05:00;1.73;;;1.57;;
2646;SDS011;1333;50.958;6.770;2022-07-18T08:07:25;1.97;;;1.70;;
2646;SDS011;1333;50.958;6.770;2022-07-18T08:09:51;1.73;;;1.63;;
2646;SDS011;1333;50.958;6.770;2022-07-18T08:12:17;2.33;;;2.00;;
2646;SDS011;1333;50.958;6.770;2022-07-18T08:14:42;2.20;;;2.10;;
2646;SDS011;1333;50.958;6.770;2022-07-18T08:17:08;3.40;;;1.60;;
2646;SDS011;1333;50.958;6.770;2022-07-18T08:19:34;2.03;;;1.93;;
2646;SDS011;1333;50.958;6.770;2022-07-18T08:21:59;3.50;;;1.87;;
2646;SDS011;1333;50.958;6.770;2022-07-18T08:24:25;2.13;;;1.90;;
2646;SDS011;1333;50.958;6.770;2022-07-18T08:26:51;1.90;;;1.80;;
2646;SDS011;1333;50.958;6.770;2022-07-18T08:29:16;1.90;;;1.80;;
2646;SDS011;1333;50.958;6.770;2022-07-18T08:31:42;2.17;;;1.97;;
2646;SDS011;1333;50.958;6.770;2022-07-18T08:34:07;2.37;;;1.97;;
2646;SDS011;1333;50.958;6.770;2022-07-18T08:36:33;2.40;;;2.20;;
2646;SDS011;1333;50.958;6.770;2022-07-18T08:38:58;1.63;;;1.53;;
2646;SDS011;1333;50.958;6.770;2022-07-18T08:41:25;2.13;;;1.93;;
2646;SDS011;1333;50.958;6.770;2022-07-18T08:43:52;2.00;;;1.90;;
2646;SDS011;1333;50.958;6.770;2022-07-18T08:46:19;1.73;;;1.63;;
2646;SDS011;1333;50.958;6.770;2022-07-18T08:48:46;2.40;;;2.20;;
2646;SDS011;1333;50.958;6.770;2022-07-18T08:51:16;3.77;;;3.43;;
2646;SDS011;1333;50.958;6.770;2022-07-18T08:53:43;3.40;;;1.93;;
2646;SDS011;1333;50.958;6.770;2022-07-18T08:56:11;3.20;;;3.00;;
2646;SDS011;1333;50.958;6.770;2022-07-18T08:58:37;3.40;;;2.33;;
2646;SDS011;1333;50.958;6.770;2022-07-18T09:01:03;2.27;;;2.10;;
2646;SDS011;1333;50.958;6.770;2022-07-18T09:03:28;2.90;;;2.40;;
2646;SDS011;1333;50.958;6.770;2022-07-18T09:06:13;4.63;;;4.17;;
2646;SDS011;1333;50.958;6.770;2022-07-18T09:08:39;2.70;;;2.50;;
2646;SDS011;1333;50.958;6.770;2022-07-18T09:11:21;3.03;;;2.50;;
2646;SDS011;1333;50.958;6.770;2022-07-18T09:13:47;6.03;;;2.20;;
2646;SDS011;1333;50.958;6.770;2022-07-18T09:16:13;13.30;;;8.60;;
2646;SDS011;1333;50.958;6.770;2022-07-18T09:18:40;3.10;;;2.90;;
2646;SDS011;1333;50.958;6.770;2022-07-18T09:21:11;4.50;;;3.60;;
2646;SDS011;1333;50.958;6.770;2022-07-18T09:23:44;3.30;;;2.83;;
2646;SDS011;1333;50.958;6.770;2022-07-18T09:26:33;3.57;;;3.27;;
2646;SDS011;1333;50.958;6.770;2022-07-18T09:29:03;5.27;;;3.27;;
2646;SDS011;1333;50.958;6.770;2022-07-18T09:31:29;5.53;;;4.37;;
2646;SDS011;1333;50.958;6.770;2022-07-18T09:33:59;5.50;;;3.80;;
2646;SDS011;1333;50.958;6.770;2022-07-18T09:36:26;6.27;;;5.67;;
2646;SDS011;1333;50.958;6.770;2022-07-18T09:38:53;3.40;;;3.20;;
2646;SDS011;1333;50.958;6.770;2022-07-18T09:41:23;3.47;;;3.27;;
2646;SDS011;1333;50.958;6.770;2022-07-18T09:43:58;5.00;;;4.60;;
2646;SDS011;1333;50.958;6.770;2022-07-18T09:46:24;4.27;;;3.83;;
2646;SDS011;1333;50.958;6.770;2022-07-18T09:49:08;9.33;;;8.30;;
2646;SDS011;1333;50.958;6.770;2022-07-18T09:51:34;7.97;;;7.20;;
2646;SDS011;1333;50.958;6.770;2022-07-18T09:54:00;4.93;;;4.63;;
2646;SDS011;1333;50.958;6.770;2022-07-18T09:56:27;4.77;;;4.47;;
2646;SDS011;1333;50.958;6.770;2022-07-18T09:58:58;4.93;;;4.60;;
2646;SDS011;1333;50.958;6.770;2022-07-18T10:01:24;4.23;;;4.00;;
2646;SDS011;1333;50.958;6.770;2022-07-18T10:03:50;4.10;;;3.90;;
2646;SDS011;1333;50.958;6.770;2022-07-18T10:06:16;4.40;;;4.20;;
2646;SDS011;1333;50.958;6.770;2022-07-18T10:08:43;4.57;;;4.27;;
2646;SDS011;1333;50.958;6.770;2022-07-18T10:11:09;3.90;;;3.70;;
2646;SDS011;1333;50.958;6.770;2022-07-18T10:13:35;3.90;;;3.70;;
2646;SDS011;1333;50.958;6.770;2022-07-18T10:16:02;4.37;;;4.17;;
2646;SDS011;1333;50.958;6.770;2022-07-18T10:18:29;3.77;;;3.63;;
2646;SDS011;1333;50.958;6.770;2022-07-18T10:21:03;3.70;;;3.60;;
2646;SDS011;1333;50.958;6.770;2022-07-18T10:31:28;4.43;;;4.20;;
2646;SDS011;1333;50.958;6.770;2022-07-18T10:34:09;4.17;;;3.97;;
2646;SDS011;1333;50.958;6.770;2022-07-18T10:39:20;4.73;;;4.53;;
2646;SDS011;1333;50.958;6.770;2022-07-18T10:44:31;4.43;;;4.23;;
2646;SDS011;1333;50.958;6.770;2022-07-18T11:00:16;4.77;;;4.57;;
2646;SDS011;1333;50.958;6.770;2022-07-18T11:03:09;4.50;;;4.30;;
2646;SDS011;1333;50.958;6.770;2022-07-18T11:05:36;4.17;;;3.97;;
2646;SDS011;1333;50.958;6.770;2022-07-18T11:08:17;3.67;;;3.47;;
2646;SDS011;1333;50.958;6.770;2022-07-18T11:16:00;3.23;;;3.03;;
2646;SDS011;1333;50.958;6.770;2022-07-18T11:26:34;3.40;;;3.20;;
2646;SDS011;1333;50.958;6.770;2022-07-18T11:31:54;3.50;;;3.30;;
2646;SDS011;1333;50.958;6.770;2022-07-18T11:34:21;3.73;;;3.53;;
2646;SDS011;1333;50.958;6.770;2022-07-18T11:36:48;3.27;;;3.17;;
2646;SDS011;1333;50.958;6.770;2022-07-18T11:39:14;3.07;;;2.90;;
2646;SDS011;1333;50.958;6.770;2022-07-18T11:41:51;2.80;;;2.70;;
2646;SDS011;1333;50.958;6.770;2022-07-18T11:44:17;3.47;;;3.37;;
2646;SDS011;1333;50.958;6.770;2022-07-18T11:47:00;3.10;;;3.00;;
2646;SDS011;1333;50.958;6.770;2022-07-18T11:49:33;2.90;;;2.80;;
2646;SDS011;1333;50.958;6.770;2022-07-18T11:51:59;3.20;;;3.10;;
2646;SDS011;1333;50.958;6.770;2022-07-18T11:54:25;2.60;;;2.50;;
2646;SDS011;1333;50.958;6.770;2022-07-18T11:56:52;2.90;;;2.80;;
2646;SDS011;1333;50.958;6.770;2022-07-18T11:59:19;2.70;;;2.60;;
2646;SDS011;1333;50.958;6.770;2022-07-18T12:01:45;2.70;;;2.60;;
2646;SDS011;1333;50.958;6.770;2022-07-18T12:04:23;2.90;;;2.80;;
2646;SDS011;1333;50.958;6.770;2022-07-18T12:09:40;3.20;;;3.10;;
2646;SDS011;1333;50.958;6.770;2022-07-18T12:12:09;3.60;;;3.40;;
2646;SDS011;1333;50.958;6.770;2022-07-18T12:14:35;3.17;;;3.07;;
2646;SDS011;1333;50.958;6.770;2022-07-18T12:17:02;3.40;;;3.20;;
2646;SDS011;1333;50.958;6.770;2022-07-18T12:19:35;3.50;;;3.30;;
2646;SDS011;1333;50.958;6.770;2022-07-18T12:27:08;3.30;;;3.10;;
2646;SDS011;1333;50.958;6.770;2022-07-18T12:29:58;3.40;;;3.20;;
2646;SDS011;1333;50.958;6.770;2022-07-18T12:32:36;3.17;;;2.97;;
2646;SDS011;1333;50.958;6.770;2022-07-18T12:35:04;3.40;;;3.20;;
2646;SDS011;1333;50.958;6.770;2022-07-18T12:37:32;3.83;;;3.50;;
2646;SDS011;1333;50.958;6.770;2022-07-18T12:39:58;3.40;;;3.20;;
2646;SDS011;1333;50.958;6.770;2022-07-18T12:42:33;3.03;;;2.83;;
2646;SDS011;1333;50.958;6.770;2022-07-18T12:45:03;3.10;;;2.90;;
2646;SDS011;1333;50.958;6.770;2022-07-18T12:47:30;2.70;;;2.60;;
2646;SDS011;1333;50.958;6.770;2022-07-18T12:49:56;2.40;;;2.30;;
2646;SDS011;1333;50.958;6.770;2022-07-18T12:52:22;2.67;;;2.57;;
2646;SDS011;1333;50.958;6.770;2022-07-18T12:54:48;3.27;;;3.07;;
2646;SDS011;1333;50.958;6.770;2022-07-18T12:57:14;2.70;;;2.60;;
2646;SDS011;1333;50.958;6.770;2022-07-18T12:59:40;2.93;;;2.80;;
2646;SDS011;1333;50.958;6.770;2022-07-18T13:02:06;2.47;;;2.30;;
2646;SDS011;1333;50.958;6.770;2022-07-18T13:04:31;2.63;;;2.50;;
2646;SDS011;1333;50.958;6.770;2022-07-18T13:06:57;2.87;;;2.67;;
2646;SDS011;1333;50.958;6.770;2022-07-18T13:09:23;2.70;;;2.50;;
2646;SDS011;1333;50.958;6.770;2022-07-18T13:11:48;3.17;;;2.57;;
2646;SDS011;1333;50.958;6.770;2022-07-18T13:14:14;2.47;;;2.27;;
2646;SDS011;1333;50.958;6.770;2022-07-18T13:16:41;1.97;;;1.87;;
2646;SDS011;1333;50.958;6.770;2022-07-18T13:19:10;2.20;;;2.10;;
2646;SDS011;1333;50.958;6.770;2022-07-18T13:21:36;2.23;;;2.13;;
2646;SDS011;1333;50.958;6.770;2022-07-18T13:24:01;2.10;;;1.90;;
2646;SDS011;1333;50.958;6.770;2022-07-18T13:26:27;2.33;;;2.13;;
2646;SDS011;1333;50.958;6.770;2022-07-18T13:28:53;2.33;;;1.90;;
2646;SDS011;1333;50.958;6.770;2022-07-18T13:31:19;4.97;;;4.57;;
2646;SDS011;1333;50.958;6.770;2022-07-18T13:33:44;3.10;;;2.80;;
2646;SDS011;1333;50.958;6.770;2022-07-18T13:36:12;2.47;;;2.27;;
2646;SDS011;1333;50.958;6.770;2022-07-18T13:38:38;1.80;;;1.70;;
2646;SDS011;1333;50.958;6.770;2022-07-18T13:41:03;3.20;;;2.90;;
2646;SDS011;1333;50.958;6.770;2022-07-18T13:43:29;2.97;;;2.77;;
2646;SDS011;1333;50.958;6.770;2022-07-18T13:45:55;2.57;;;2.37;;
2646;SDS011;1333;50.958;6.770;2022-07-18T13:48:20;3.33;;;2.63;;
2646;SDS011;1333;50.958;6.770;2022-07-18T13:50:46;1.53;;;1.33;;
2646;SDS011;1333;50.958;6.770;2022-07-18T13:53:11;2.33;;;1.80;;
2646;SDS011;1333;50.958;6.770;2022-07-18T13:55:37;2.03;;;1.83;;
2646;SDS011;1333;50.958;6.770;2022-07-18T13:58:03;1.83;;;1.73;;
2646;SDS011;1333;50.958;6.770;2022-07-18T14:00:28;2.13;;;1.93;;
2646;SDS011;1333;50.958;6.770;2022-07-18T14:02:54;1.60;;;1.50;;
2646;SDS011;1333;50.958;6.770;2022-07-18T14:05:19;2.47;;;1.57;;
2646;SDS011;1333;50.958;6.770;2022-07-18T14:07:45;2.13;;;1.80;;
2646;SDS011;1333;50.958;6.770;2022-07-18T14:10:12;1.67;;;1.57;;
2646;SDS011;1333;50.958;6.770;2022-07-18T14:12:39;2.57;;;1.83;;
2646;SDS011;1333;50.958;6.770;2022-07-18T14:15:05;3.87;;;3.67;;
2646;SDS011;1333;50.958;6.770;2022-07-18T14:17:31;4.37;;;3.97;;
2646;SDS011;1333;50.958;6.770;2022-07-18T14:19:58;3.73;;;3.43;;
2646;SDS011;1333;50.958;6.770;2022-07-18T14:22:23;3.83;;;3.63;;
2646;SDS011;1333;50.958;6.770;2022-07-18T14:24:49;3.50;;;3.20;;
2646;SDS011;1333;50.958;6.770;2022-07-18T14:27:14;3.40;;;3.20;;
2646;SDS011;1333;50.958;6.770;2022-07-18T14:29:40;4.80;;;3.60;;
2646;SDS011;1333;50.958;6.770;2022-07-18T14:32:06;3.87;;;3.33;;
2646;SDS011;1333;50.958;6.770;2022-07-18T14:34:32;11.90;;;5.20;;
2646;SDS011;1333;50.958;6.770;2022-07-18T14:36:58;25.23;;;14.10;;
2646;SDS011;1333;50.958;6.770;2022-07-18T14:39:24;9.20;;;6.37;;
2646;SDS011;1333;50.958;6.770;2022-07-18T14:41:49;7.07;;;6.27;;
2646;SDS011;1333;50.958;6.770;2022-07-18T14:44:15;5.80;;;4.60;;
2646;SDS011;1333;50.958;6.770;2022-07-18T14:46:40;5.03;;;3.57;;
2646;SDS011;1333;50.958;6.770;2022-07-18T14:49:06;9.00;;;5.43;;
2646;SDS011;1333;50.958;6.770;2022-07-18T14:51:31;3.60;;;3.00;;
2646;SDS011;1333;50.958;6.770;2022-07-18T14:53:58;2.90;;;2.70;;
2646;SDS011;1333;50.958;6.770;2022-07-18T14:56:24;3.47;;;3.17;;
2646;SDS011;1333;50.958;6.770;2022-07-18T14:58:50;3.30;;;3.10;;
2646;SDS011;1333;50.958;6.770;2022-07-18T15:01:16;3.23;;;3.00;;
2646;SDS011;1333;50.958;6.770;2022-07-18T15:03:44;4.30;;;4.00;;
2646;SDS011;1333;50.958;6.770;2022-07-18T15:06:10;10.50;;;8.70;;
2646;SDS011;1333;50.958;6.770;2022-07-18T15:08:36;3.50;;;3.30;;
2646;SDS011;1333;50.958;6.770;2022-07-18T15:11:02;3.37;;;3.17;;
2646;SDS011;1333;50.958;6.770;2022-07-18T15:13:27;3.73;;;3.43;;
2646;SDS011;1333;50.958;6.770;2022-07-18T15:15:53;3.33;;;3.13;;
2646;SDS011;1333;50.958;6.770;2022-07-18T15:18:18;3.17;;;2.97;;
2646;SDS011;1333;50.958;6.770;2022-07-18T15:20:44;2.53;;;2.40;;
2646;SDS011;1333;50.958;6.770;2022-07-18T15:23:10;3.67;;;3.40;;
2646;SDS011;1333;50.958;6.770;2022-07-18T15:25:36;3.83;;;2.20;;
2646;SDS011;1333;50.958;6.770;2022-07-18T15:28:01;5.17;;;2.70;;
2646;SDS011;1333;50.958;6.770;2022-07-18T15:30:27;2.83;;;2.63;;
2646;SDS011;1333;50.958;6.770;2022-07-18T15:32:52;1.97;;;1.87;;
2646;SDS011;1333;50.958;6.770;2022-07-18T15:35:18;2.40;;;2.20;;
2646;SDS011;1333;50.958;6.770;2022-07-18T15:37:43;4.90;;;2.10;;
2646;SDS011;1333;50.958;6.770;2022-07-18T15:40:09;2.50;;;2.30;;
2646;SDS011;1333;50.958;6.770;2022-07-18T15:42:35;2.70;;;2.50;;
2646;SDS011;1333;50.958;6.770;2022-07-18T15:45:00;2.63;;;2.43;;
2646;SDS011;1333;50.958;6.770;2022-07-18T15:47:26;2.60;;;2.37;;
2646;SDS011;1333;50.958;6.770;2022-07-18T15:49:52;2.73;;;2.50;;
2646;SDS011;1333;50.958;6.770;2022-07-18T15:52:17;2.37;;;2.17;;
2646;SDS011;1333;50.958;6.770;2022-07-18T15:54:43;2.10;;;2.00;;
2646;SDS011;1333;50.958;6.770;2022-07-18T15:57:08;4.43;;;1.73;;
2646;SDS011;1333;50.958;6.770;2022-07-18T15:59:34;2.00;;;1.90;;
2646;SDS011;1333;50.958;6.770;2022-07-18T16:02:00;2.30;;;2.10;;